Terminal Aerodrome Forecast
Issued by NWS Sterling, VA

Current Version | Previous Version | Text Only | Print | Product List | Glossary Off
Versions: 1 2 3 4 5 6 7 8 9 10 11 12 13 14 15 16 17

000
FTUS41 KLWX 281700
TAFMRB
TAF
KMRB 281725Z 2818/2918 30008G16KT P6SM BKN050
     FM282100 29005KT P6SM SCT050 BKN100
     FM290000 VRB03KT P6SM BKN050 BKN100
     FM291500 15006KT P6SM BKN130=

USA.gov is the U.S. government's official web portal to all federal, state and local government web resources and services.